sensor_id;sensor_type;location;lat;lon;timestamp;P1;durP1;ratioP1;P2;durP2;ratioP2
46597;SDS011;32318;48.858;8.252;2022-07-03T00:05:19;2.63;;;1.00;;
46597;SDS011;32318;48.858;8.252;2022-07-03T00:13:20;1.45;;;0.80;;
46597;SDS011;32318;48.858;8.252;2022-07-03T00:21:23;2.40;;;0.90;;
46597;SDS011;32318;48.858;8.252;2022-07-03T00:29:29;1.08;;;0.85;;
46597;SDS011;32318;48.858;8.252;2022-07-03T00:37:31;3.65;;;1.20;;
46597;SDS011;32318;48.858;8.252;2022-07-03T00:45:32;3.35;;;1.00;;
46597;SDS011;32318;48.858;8.252;2022-07-03T00:53:36;1.42;;;1.10;;
46597;SDS011;32318;48.858;8.252;2022-07-03T01:01:38;7.05;;;1.30;;
46597;SDS011;32318;48.858;8.252;2022-07-03T01:17:59;4.03;;;1.30;;
46597;SDS011;32318;48.858;8.252;2022-07-03T01:26:10;1.77;;;1.10;;
46597;SDS011;32318;48.858;8.252;2022-07-03T01:34:14;1.65;;;0.98;;
46597;SDS011;32318;48.858;8.252;2022-07-03T01:42:19;2.88;;;0.93;;
46597;SDS011;32318;48.858;8.252;2022-07-03T01:50:19;2.33;;;1.35;;
46597;SDS011;32318;48.858;8.252;2022-07-03T01:58:21;4.15;;;1.10;;
46597;SDS011;32318;48.858;8.252;2022-07-03T02:14:32;4.22;;;1.20;;
46597;SDS011;32318;48.858;8.252;2022-07-03T02:22:42;1.40;;;1.10;;
46597;SDS011;32318;48.858;8.252;2022-07-03T02:30:48;2.47;;;1.40;;
46597;SDS011;32318;48.858;8.252;2022-07-03T02:38:52;2.40;;;1.13;;
46597;SDS011;32318;48.858;8.252;2022-07-03T02:47:00;4.53;;;1.05;;
46597;SDS011;32318;48.858;8.252;2022-07-03T03:03:35;5.53;;;1.02;;
46597;SDS011;32318;48.858;8.252;2022-07-03T03:11:42;2.20;;;0.90;;
46597;SDS011;32318;48.858;8.252;2022-07-03T03:19:45;1.80;;;1.05;;
46597;SDS011;32318;48.858;8.252;2022-07-03T03:27:48;4.65;;;1.20;;
46597;SDS011;32318;48.858;8.252;2022-07-03T03:35:48;3.70;;;1.25;;
46597;SDS011;32318;48.858;8.252;2022-07-03T03:43:49;6.10;;;1.20;;
46597;SDS011;32318;48.858;8.252;2022-07-03T03:51:50;1.10;;;1.00;;
46597;SDS011;32318;48.858;8.252;2022-07-03T03:59:50;1.73;;;1.38;;
46597;SDS011;32318;48.858;8.252;2022-07-03T04:07:51;4.32;;;0.90;;
46597;SDS011;32318;48.858;8.252;2022-07-03T04:15:52;2.05;;;1.20;;
46597;SDS011;32318;48.858;8.252;2022-07-03T04:23:53;7.05;;;1.40;;
46597;SDS011;32318;48.858;8.252;2022-07-03T04:31:53;2.33;;;1.15;;
46597;SDS011;32318;48.858;8.252;2022-07-03T04:39:53;2.33;;;1.08;;
46597;SDS011;32318;48.858;8.252;2022-07-03T04:47:54;2.85;;;1.20;;
46597;SDS011;32318;48.858;8.252;2022-07-03T04:55:54;2.53;;;1.27;;
46597;SDS011;32318;48.858;8.252;2022-07-03T05:03:54;3.63;;;1.63;;
46597;SDS011;32318;48.858;8.252;2022-07-03T05:11:55;2.65;;;1.40;;
46597;SDS011;32318;48.858;8.252;2022-07-03T05:19:55;3.53;;;1.42;;
46597;SDS011;32318;48.858;8.252;2022-07-03T05:28:14;6.90;;;1.38;;
46597;SDS011;32318;48.858;8.252;2022-07-03T05:36:14;3.50;;;1.33;;
46597;SDS011;32318;48.858;8.252;2022-07-03T05:44:14;2.35;;;1.20;;
46597;SDS011;32318;48.858;8.252;2022-07-03T05:52:15;5.70;;;1.33;;
46597;SDS011;32318;48.858;8.252;2022-07-03T06:00:16;1.55;;;1.10;;
46597;SDS011;32318;48.858;8.252;2022-07-03T06:08:16;2.90;;;1.05;;
46597;SDS011;32318;48.858;8.252;2022-07-03T06:16:17;3.88;;;1.27;;
46597;SDS011;32318;48.858;8.252;2022-07-03T06:24:17;1.52;;;1.02;;
46597;SDS011;32318;48.858;8.252;2022-07-03T06:32:17;10.10;;;1.25;;
46597;SDS011;32318;48.858;8.252;2022-07-03T06:40:18;10.13;;;1.50;;
46597;SDS011;32318;48.858;8.252;2022-07-03T06:48:18;2.58;;;1.00;;
46597;SDS011;32318;48.858;8.252;2022-07-03T06:56:18;2.78;;;1.00;;
46597;SDS011;32318;48.858;8.252;2022-07-03T07:04:19;3.17;;;1.08;;
46597;SDS011;32318;48.858;8.252;2022-07-03T07:12:19;4.13;;;0.85;;
46597;SDS011;32318;48.858;8.252;2022-07-03T07:20:19;4.93;;;0.90;;
46597;SDS011;32318;48.858;8.252;2022-07-03T07:28:19;2.03;;;0.75;;
46597;SDS011;32318;48.858;8.252;2022-07-03T07:36:20;7.45;;;0.80;;
46597;SDS011;32318;48.858;8.252;2022-07-03T07:44:20;1.20;;;0.65;;
46597;SDS011;32318;48.858;8.252;2022-07-03T07:52:20;1.00;;;0.80;;
46597;SDS011;32318;48.858;8.252;2022-07-03T08:00:24;6.57;;;1.00;;
46597;SDS011;32318;48.858;8.252;2022-07-03T08:08:24;1.23;;;0.85;;
46597;SDS011;32318;48.858;8.252;2022-07-03T08:16:24;2.30;;;0.80;;
46597;SDS011;32318;48.858;8.252;2022-07-03T08:24:24;8.02;;;0.85;;
46597;SDS011;32318;48.858;8.252;2022-07-03T08:32:25;5.30;;;0.77;;
46597;SDS011;32318;48.858;8.252;2022-07-03T08:40:25;2.97;;;0.70;;
46597;SDS011;32318;48.858;8.252;2022-07-03T08:48:26;1.20;;;0.60;;
46597;SDS011;32318;48.858;8.252;2022-07-03T08:56:28;3.67;;;0.60;;
46597;SDS011;32318;48.858;8.252;2022-07-03T09:04:28;5.10;;;0.90;;
46597;SDS011;32318;48.858;8.252;2022-07-03T09:12:32;1.08;;;0.80;;
46597;SDS011;32318;48.858;8.252;2022-07-03T09:20:36;3.65;;;0.80;;
46597;SDS011;32318;48.858;8.252;2022-07-03T09:28:43;1.45;;;0.47;;
46597;SDS011;32318;48.858;8.252;2022-07-03T09:36:45;1.50;;;0.60;;
46597;SDS011;32318;48.858;8.252;2022-07-03T09:44:47;10.23;;;0.60;;
46597;SDS011;32318;48.858;8.252;2022-07-03T09:52:47;5.97;;;0.80;;
46597;SDS011;32318;48.858;8.252;2022-07-03T10:00:48;1.83;;;0.60;;
46597;SDS011;32318;48.858;8.252;2022-07-03T10:08:48;4.13;;;0.73;;
46597;SDS011;32318;48.858;8.252;2022-07-03T10:16:50;1.23;;;0.50;;
46597;SDS011;32318;48.858;8.252;2022-07-03T10:24:51;5.05;;;0.55;;
46597;SDS011;32318;48.858;8.252;2022-07-03T10:32:53;1.33;;;0.60;;
46597;SDS011;32318;48.858;8.252;2022-07-03T10:49:25;1.95;;;0.60;;
46597;SDS011;32318;48.858;8.252;2022-07-03T10:57:25;7.13;;;0.50;;
46597;SDS011;32318;48.858;8.252;2022-07-03T11:05:26;2.95;;;0.60;;
46597;SDS011;32318;48.858;8.252;2022-07-03T11:13:36;3.65;;;0.65;;
46597;SDS011;32318;48.858;8.252;2022-07-03T11:22:17;1.13;;;0.43;;
46597;SDS011;32318;48.858;8.252;2022-07-03T11:30:24;9.02;;;1.30;;
46597;SDS011;32318;48.858;8.252;2022-07-03T11:38:27;1.90;;;0.52;;
46597;SDS011;32318;48.858;8.252;2022-07-03T11:46:30;1.10;;;0.47;;
46597;SDS011;32318;48.858;8.252;2022-07-03T11:54:32;4.72;;;0.65;;
46597;SDS011;32318;48.858;8.252;2022-07-03T12:02:49;0.77;;;0.43;;
46597;SDS011;32318;48.858;8.252;2022-07-03T12:10:56;2.00;;;0.57;;
46597;SDS011;32318;48.858;8.252;2022-07-03T12:19:02;2.67;;;0.75;;
46597;SDS011;32318;48.858;8.252;2022-07-03T12:27:05;2.85;;;0.50;;
46597;SDS011;32318;48.858;8.252;2022-07-03T12:35:06;1.23;;;0.60;;
46597;SDS011;32318;48.858;8.252;2022-07-03T12:43:06;2.88;;;0.47;;
46597;SDS011;32318;48.858;8.252;2022-07-03T12:51:07;3.67;;;0.70;;
46597;SDS011;32318;48.858;8.252;2022-07-03T12:59:07;2.05;;;0.70;;
46597;SDS011;32318;48.858;8.252;2022-07-03T13:07:24;1.35;;;0.57;;
46597;SDS011;32318;48.858;8.252;2022-07-03T13:15:29;2.20;;;0.60;;
46597;SDS011;32318;48.858;8.252;2022-07-03T13:23:29;1.13;;;0.65;;
46597;SDS011;32318;48.858;8.252;2022-07-03T13:31:30;3.38;;;0.80;;
46597;SDS011;32318;48.858;8.252;2022-07-03T13:39:31;2.00;;;0.45;;
46597;SDS011;32318;48.858;8.252;2022-07-03T13:47:31;3.00;;;0.70;;
46597;SDS011;32318;48.858;8.252;2022-07-03T13:55:31;6.00;;;0.70;;
46597;SDS011;32318;48.858;8.252;2022-07-03T14:03:32;5.43;;;0.77;;
46597;SDS011;32318;48.858;8.252;2022-07-03T14:11:32;5.07;;;0.63;;
46597;SDS011;32318;48.858;8.252;2022-07-03T14:19:32;3.65;;;0.60;;
46597;SDS011;32318;48.858;8.252;2022-07-03T14:27:32;2.85;;;1.02;;
46597;SDS011;32318;48.858;8.252;2022-07-03T14:35:51;1.25;;;0.60;;
46597;SDS011;32318;48.858;8.252;2022-07-03T14:43:51;2.05;;;0.85;;
46597;SDS011;32318;48.858;8.252;2022-07-03T14:51:52;4.05;;;0.55;;
46597;SDS011;32318;48.858;8.252;2022-07-03T15:00:06;2.45;;;0.80;;
46597;SDS011;32318;48.858;8.252;2022-07-03T15:16:16;8.27;;;0.70;;
46597;SDS011;32318;48.858;8.252;2022-07-03T15:24:17;1.52;;;0.57;;
46597;SDS011;32318;48.858;8.252;2022-07-03T15:32:23;0.90;;;0.57;;
46597;SDS011;32318;48.858;8.252;2022-07-03T15:40:25;2.47;;;0.60;;
46597;SDS011;32318;48.858;8.252;2022-07-03T15:56:47;5.88;;;0.80;;
46597;SDS011;32318;48.858;8.252;2022-07-03T16:05:06;3.88;;;0.50;;
46597;SDS011;32318;48.858;8.252;2022-07-03T16:13:11;13.25;;;0.73;;
46597;SDS011;32318;48.858;8.252;2022-07-03T16:21:12;5.18;;;0.60;;
46597;SDS011;32318;48.858;8.252;2022-07-03T16:29:12;3.30;;;0.90;;
46597;SDS011;32318;48.858;8.252;2022-07-03T16:37:12;2.63;;;0.60;;
46597;SDS011;32318;48.858;8.252;2022-07-03T16:45:15;3.58;;;0.88;;
46597;SDS011;32318;48.858;8.252;2022-07-03T16:53:19;12.55;;;1.52;;
46597;SDS011;32318;48.858;8.252;2022-07-03T17:01:20;3.58;;;0.60;;
46597;SDS011;32318;48.858;8.252;2022-07-03T17:09:22;8.15;;;0.80;;
46597;SDS011;32318;48.858;8.252;2022-07-03T17:17:23;2.53;;;0.70;;
46597;SDS011;32318;48.858;8.252;2022-07-03T17:25:24;3.53;;;0.80;;
46597;SDS011;32318;48.858;8.252;2022-07-03T17:33:26;1.83;;;0.80;;
46597;SDS011;32318;48.858;8.252;2022-07-03T17:41:29;4.00;;;0.70;;
46597;SDS011;32318;48.858;8.252;2022-07-03T17:49:30;2.85;;;1.02;;
46597;SDS011;32318;48.858;8.252;2022-07-03T17:57:32;5.03;;;0.80;;
46597;SDS011;32318;48.858;8.252;2022-07-03T18:05:44;1.83;;;0.80;;
46597;SDS011;32318;48.858;8.252;2022-07-03T18:14:04;5.90;;;1.00;;
46597;SDS011;32318;48.858;8.252;2022-07-03T18:22:09;7.53;;;1.33;;
46597;SDS011;32318;48.858;8.252;2022-07-03T18:30:11;4.57;;;1.13;;
46597;SDS011;32318;48.858;8.252;2022-07-03T18:38:12;10.13;;;0.85;;
46597;SDS011;32318;48.858;8.252;2022-07-03T18:46:12;7.30;;;0.93;;
46597;SDS011;32318;48.858;8.252;2022-07-03T19:02:24;3.85;;;1.15;;
46597;SDS011;32318;48.858;8.252;2022-07-03T19:10:29;5.15;;;1.08;;
46597;SDS011;32318;48.858;8.252;2022-07-03T19:26:34;3.25;;;1.38;;
46597;SDS011;32318;48.858;8.252;2022-07-03T19:34:36;6.45;;;1.10;;
46597;SDS011;32318;48.858;8.252;2022-07-03T19:42:45;8.10;;;1.10;;
46597;SDS011;32318;48.858;8.252;2022-07-03T19:50:45;2.38;;;1.00;;
46597;SDS011;32318;48.858;8.252;2022-07-03T19:58:45;5.22;;;1.08;;
46597;SDS011;32318;48.858;8.252;2022-07-03T20:06:46;4.85;;;1.13;;
46597;SDS011;32318;48.858;8.252;2022-07-03T20:14:49;7.50;;;1.20;;
46597;SDS011;32318;48.858;8.252;2022-07-03T20:22:52;5.15;;;0.95;;
46597;SDS011;32318;48.858;8.252;2022-07-03T20:30:53;2.08;;;1.25;;
46597;SDS011;32318;48.858;8.252;2022-07-03T20:38:53;2.33;;;0.90;;
46597;SDS011;32318;48.858;8.252;2022-07-03T20:46:54;6.32;;;1.10;;
46597;SDS011;32318;48.858;8.252;2022-07-03T20:54:54;3.63;;;1.00;;
46597;SDS011;32318;48.858;8.252;2022-07-03T21:02:55;4.63;;;0.95;;
46597;SDS011;32318;48.858;8.252;2022-07-03T21:10:55;4.60;;;1.67;;
46597;SDS011;32318;48.858;8.252;2022-07-03T21:19:14;3.15;;;1.25;;
46597;SDS011;32318;48.858;8.252;2022-07-03T21:27:16;2.97;;;1.10;;
46597;SDS011;32318;48.858;8.252;2022-07-03T21:35:16;4.17;;;1.43;;
46597;SDS011;32318;48.858;8.252;2022-07-03T21:43:17;3.22;;;1.15;;
46597;SDS011;32318;48.858;8.252;2022-07-03T21:51:17;4.82;;;1.00;;
46597;SDS011;32318;48.858;8.252;2022-07-03T21:59:17;7.82;;;0.90;;
46597;SDS011;32318;48.858;8.252;2022-07-03T22:07:17;2.35;;;0.80;;
46597;SDS011;32318;48.858;8.252;2022-07-03T22:15:18;2.95;;;1.02;;
46597;SDS011;32318;48.858;8.252;2022-07-03T22:23:20;3.90;;;1.00;;
46597;SDS011;32318;48.858;8.252;2022-07-03T22:31:20;3.40;;;0.82;;
46597;SDS011;32318;48.858;8.252;2022-07-03T22:39:47;5.45;;;0.90;;
46597;SDS011;32318;48.858;8.252;2022-07-03T22:47:48;1.45;;;0.70;;
46597;SDS011;32318;48.858;8.252;2022-07-03T22:55:49;5.57;;;1.38;;
46597;SDS011;32318;48.858;8.252;2022-07-03T23:03:49;5.35;;;1.40;;
46597;SDS011;32318;48.858;8.252;2022-07-03T23:11:49;3.85;;;1.20;;
46597;SDS011;32318;48.858;8.252;2022-07-03T23:19:49;2.17;;;0.93;;
46597;SDS011;32318;48.858;8.252;2022-07-03T23:27:50;3.05;;;1.30;;
46597;SDS011;32318;48.858;8.252;2022-07-03T23:35:50;2.83;;;0.93;;
46597;SDS011;32318;48.858;8.252;2022-07-03T23:43:50;6.55;;;1.30;;
46597;SDS011;32318;48.858;8.252;2022-07-03T23:51:51;1.90;;;1.10;;
46597;SDS011;32318;48.858;8.252;2022-07-03T23:59:51;10.30;;;1.20;;
